Lanty, Arkansas
Current Conditions -  °F | °C
As of 6:53 AM on Saturday 25 Oct 2014 (Local Time) from KRUE Reporting Station
Haze Haze  
Wind Chill: 12°   Ceiling: Unl
Heat Index: 12°   Visibility: 3mi
Dew Point: 11°   Wind: 0mph
Humidity: 93%   Direction: NA
Pressure: 30.11"   Gusts: NA
Location:  35.227°N, 92.6879°W
Report Text: KRUE 251153Z AUTO 00000KT 3SM BR CLR 12/11 A3011 RMK AO2 SLP189 T01220111 10144 20122 53009
Loading
Personal Weather Stations






























Interactive Weather Map
Tropical Storm Tracking
New forecast layout! Learn more

10-Day Weather Forecast

Advertisements
Track Severe Weather on mobile